createdAt,value
2024-03-12T00:01:04.037Z,98
2024-03-12T00:02:44.941Z,97.8
2024-03-12T00:04:25.519Z,98.2
2024-03-12T00:06:06.024Z,98.1
2024-03-12T00:07:46.596Z,97.8
2024-03-12T00:09:27.119Z,98
2024-03-12T00:11:07.837Z,98.1
2024-03-12T00:12:49.318Z,98.1
2024-03-12T00:14:30.032Z,97.8
2024-03-12T00:16:10.831Z,98
2024-03-12T00:17:51.798Z,97.9
2024-03-12T00:19:32.506Z,97.7
2024-03-12T00:21:12.987Z,98.2
2024-03-12T00:22:53.443Z,97.9
2024-03-12T00:24:33.984Z,97.8
2024-03-12T00:26:14.674Z,97.9
2024-03-12T00:27:55.203Z,97.9
2024-03-12T00:29:35.977Z,97.8
2024-03-12T00:31:16.568Z,97.9
2024-03-12T00:32:57.263Z,97.6
2024-03-12T00:34:37.948Z,98
2024-03-12T00:36:18.524Z,97.9
2024-03-12T00:37:58.978Z,97.8
2024-03-12T00:39:39.667Z,98
2024-03-12T00:41:20.305Z,97.8
2024-03-12T00:43:00.958Z,98
2024-03-12T00:44:41.809Z,98.1
2024-03-12T00:46:22.437Z,97.7
2024-03-12T00:48:03.003Z,97.9
2024-03-12T00:49:43.676Z,97.9
2024-03-12T00:51:24.329Z,97.7
2024-03-12T00:53:04.821Z,98
2024-03-12T00:54:45.493Z,97.9
2024-03-12T00:56:26.137Z,97.7
2024-03-12T00:58:06.672Z,97.9
2024-03-12T00:59:47.278Z,97.8
2024-03-12T01:01:27.994Z,98
2024-03-12T01:03:08.705Z,97.8
2024-03-12T01:04:50.036Z,98
2024-03-12T01:06:30.567Z,98
2024-03-12T01:08:11.223Z,98
2024-03-12T01:09:51.805Z,97.9
2024-03-12T01:11:32.596Z,98
2024-03-12T01:13:13.736Z,98
2024-03-12T01:14:54.329Z,97.7
2024-03-12T01:16:34.777Z,97.7
2024-03-12T01:18:15.337Z,97.7
2024-03-12T01:19:55.878Z,97.9
2024-03-12T01:21:36.514Z,97.7
2024-03-12T01:23:17.029Z,97.7
2024-03-12T01:24:58.072Z,98
2024-03-12T01:26:39.164Z,98
2024-03-12T01:28:19.774Z,98
2024-03-12T01:30:00.325Z,97.8
2024-03-12T01:31:40.968Z,98
2024-03-12T01:33:21.609Z,97.7
2024-03-12T01:35:02.081Z,97.6
2024-03-12T01:36:42.675Z,97.8
2024-03-12T01:38:23.364Z,97.8
2024-03-12T01:40:04.245Z,97.7
2024-03-12T01:42:03.503Z,98
2024-03-12T01:43:43.988Z,97.8
2024-03-12T01:45:25.147Z,97.7
2024-03-12T01:47:05.858Z,97.9
2024-03-12T01:48:46.471Z,97.8
2024-03-12T01:50:27.433Z,98
2024-03-12T01:52:07.966Z,97.7
2024-03-12T01:53:48.558Z,97.9
2024-03-12T01:55:29.298Z,97.8
2024-03-12T01:57:09.783Z,97.7
2024-03-12T01:58:50.231Z,98.2
2024-03-12T02:00:30.764Z,97.9
2024-03-12T02:02:11.353Z,97.7
2024-03-12T02:03:51.917Z,97.6
2024-03-12T02:05:32.851Z,97.7
2024-03-12T02:07:13.422Z,97.8
2024-03-12T02:08:54.048Z,97.9
2024-03-12T02:10:34.636Z,98.1
2024-03-12T02:12:15.100Z,97.8
2024-03-12T02:13:55.585Z,98.1
2024-03-12T02:15:36.287Z,97.8
2024-03-12T02:17:16.991Z,97.9
2024-03-12T02:18:57.487Z,97.8
2024-03-12T02:20:38.015Z,97.5
2024-03-12T02:22:18.667Z,97.8
2024-03-12T02:23:59.135Z,97.5
2024-03-12T02:25:39.652Z,97.8
2024-03-12T02:27:20.132Z,97.8
2024-03-12T02:29:00.646Z,97.9
2024-03-12T02:30:41.245Z,97.8
2024-03-12T02:32:21.890Z,97.7
2024-03-12T02:34:02.622Z,97.9
2024-03-12T02:35:43.254Z,97.9
2024-03-12T03:03:20.213Z,97.7
2024-03-12T03:05:00.752Z,97.9
2024-03-12T03:06:41.270Z,97.6
2024-03-12T03:08:21.832Z,97.8
2024-03-12T03:10:02.759Z,98
2024-03-12T03:11:43.592Z,97.8
2024-03-12T03:13:24.049Z,97.6
2024-03-12T03:15:04.601Z,97.8
2024-03-12T03:16:45.177Z,97.6
2024-03-12T03:18:25.889Z,97.5
2024-03-12T03:20:06.524Z,97.7
2024-03-12T03:21:47.053Z,97.9
2024-03-12T03:23:27.602Z,97.9
2024-03-12T03:25:08.198Z,97.8
2024-03-12T03:26:48.923Z,97.9
2024-03-12T03:28:29.377Z,97.8
2024-03-12T03:30:09.853Z,98
2024-03-12T03:31:50.289Z,98
2024-03-12T03:33:31.003Z,98
2024-03-12T03:35:11.718Z,98.1
2024-03-12T03:36:52.242Z,97.6
2024-03-12T03:38:32.828Z,97.9
2024-03-12T03:40:14.124Z,97.8
2024-03-12T03:41:54.760Z,97.9
2024-03-12T03:43:35.799Z,98
2024-03-12T03:45:17.427Z,97.8
2024-03-12T03:46:57.869Z,98
2024-03-12T03:48:38.453Z,97.8
2024-03-12T03:50:19.042Z,97.9
2024-03-12T03:51:59.591Z,98
2024-03-12T03:53:40.116Z,97.9
2024-03-12T03:55:20.631Z,97.8
2024-03-12T03:57:01.110Z,97.7
2024-03-12T03:58:41.609Z,97.8
2024-03-12T04:00:22.022Z,98.2
2024-03-12T04:02:02.569Z,97.7
2024-03-12T04:03:43.284Z,97.8
2024-03-12T04:05:23.909Z,97.6
2024-03-12T04:07:04.414Z,97.6
2024-03-12T04:08:44.919Z,97.9
2024-03-12T04:10:25.369Z,97.7
2024-03-12T04:12:05.826Z,97.9
2024-03-12T04:13:46.284Z,98
2024-03-12T04:15:26.775Z,97.9
2024-03-12T04:17:07.407Z,98
2024-03-12T04:18:48.004Z,98
2024-03-12T04:20:28.616Z,98.2
2024-03-12T04:22:09.195Z,97.9
2024-03-12T04:23:49.838Z,97.7
2024-03-12T04:25:30.290Z,97.7
2024-03-12T04:27:10.815Z,97.7
2024-03-12T04:28:51.320Z,97.8
2024-03-12T04:30:31.825Z,97.7
2024-03-12T04:32:12.489Z,97.9
2024-03-12T04:33:53.101Z,97.7
2024-03-12T04:35:35.108Z,97.6
2024-03-12T04:37:15.640Z,97.7
2024-03-12T04:38:56.191Z,97.9
2024-03-12T04:40:36.658Z,98
2024-03-12T04:42:17.105Z,97.6
2024-03-12T04:43:57.552Z,97.8
2024-03-12T04:45:38.317Z,97.7
2024-03-12T04:47:18.775Z,97.6
2024-03-12T04:48:59.349Z,97.8
2024-03-12T04:50:39.902Z,97.7
2024-03-12T04:52:20.341Z,97.7
2024-03-12T04:54:17.694Z,97.3
2024-03-12T04:55:58.150Z,97.7
2024-03-12T04:57:38.717Z,97.9
2024-03-12T04:59:19.277Z,97.6
2024-03-12T05:00:59.959Z,97.6
2024-03-12T05:02:40.492Z,97.7
2024-03-12T05:04:24.673Z,97.8
2024-03-12T05:06:05.181Z,97.8
2024-03-12T05:07:45.646Z,97.5
2024-03-12T05:09:26.163Z,97.8
2024-03-12T05:11:06.655Z,97.6
2024-03-12T05:12:47.425Z,97.9
2024-03-12T05:14:27.996Z,97.8
2024-03-12T05:16:08.505Z,97.7
2024-03-12T05:17:49.224Z,97.7
2024-03-12T05:19:29.960Z,97.8
2024-03-12T05:21:10.416Z,97.6
2024-03-12T05:22:50.866Z,97.7
2024-03-12T05:24:31.457Z,97.9
2024-03-12T05:26:11.983Z,97.7
2024-03-12T05:27:52.968Z,97.9
2024-03-12T05:29:33.732Z,97.6
2024-03-12T05:31:14.283Z,97.8
2024-03-12T05:32:55.294Z,97.4
2024-03-12T05:34:36.227Z,97.4
2024-03-12T05:36:16.661Z,97.7
2024-03-12T05:37:57.232Z,97.4
2024-03-12T05:39:37.697Z,97.5
2024-03-12T05:41:18.345Z,97.4
2024-03-12T05:42:58.989Z,97.5
2024-03-12T05:44:39.452Z,97.7
2024-03-12T05:46:20.431Z,97.8
2024-03-12T05:48:01.371Z,97.8
2024-03-12T05:49:41.884Z,97.7
2024-03-12T05:51:22.778Z,97.6
2024-03-12T05:53:03.685Z,97.6
2024-03-12T05:54:44.228Z,97.7
2024-03-12T05:56:24.798Z,97.5
2024-03-12T05:58:05.419Z,97.6
2024-03-12T05:59:46.009Z,97.7
2024-03-12T06:01:28.444Z,97.5
2024-03-12T06:03:09.695Z,97.6
2024-03-12T06:04:50.253Z,97.7
2024-03-12T06:06:30.718Z,97.9
2024-03-12T06:08:11.257Z,98
2024-03-12T06:09:51.726Z,97.6
2024-03-12T06:11:32.408Z,97.7
2024-03-12T06:13:13.127Z,97.6
2024-03-12T06:14:53.690Z,97.6
2024-03-12T06:16:34.178Z,97.8
2024-03-12T06:18:14.630Z,97.7
2024-03-12T06:19:55.099Z,97.5
2024-03-12T06:21:35.594Z,97.8
2024-03-12T06:23:16.087Z,97.6
2024-03-12T06:24:57.326Z,97.7
2024-03-12T06:26:39.309Z,97.7
2024-03-12T06:28:20.711Z,97.6
2024-03-12T06:30:01.173Z,97.7
2024-03-12T06:31:41.639Z,97.6
2024-03-12T06:33:22.238Z,97.6
2024-03-12T06:35:03.061Z,97.6
2024-03-12T06:36:43.594Z,97.6
2024-03-12T06:38:24.162Z,97.7
2024-03-12T06:40:04.820Z,97.7
2024-03-12T06:43:47.349Z,97.6
2024-03-12T06:45:27.871Z,97.4
2024-03-12T06:47:08.530Z,97.4
2024-03-12T06:48:49.120Z,97.7
2024-03-12T06:50:29.894Z,97.7
2024-03-12T06:52:10.604Z,97.8
2024-03-12T06:53:51.216Z,97.7
2024-03-12T06:55:31.681Z,97.5
2024-03-12T06:57:12.250Z,97.8
2024-03-12T06:58:52.836Z,97.7
2024-03-12T07:00:33.742Z,97.7
2024-03-12T07:02:14.465Z,97.8
2024-03-12T07:03:55.136Z,97.9
2024-03-12T07:05:35.719Z,97.9
2024-03-12T07:07:16.262Z,97.7
2024-03-12T07:08:56.776Z,97.8
2024-03-12T07:10:37.253Z,97.6
2024-03-12T07:12:17.989Z,97.8
2024-03-12T07:13:58.437Z,97.8
2024-03-12T07:15:38.872Z,97.7
2024-03-12T07:17:19.736Z,97.5
2024-03-12T07:19:00.257Z,97.7
2024-03-12T07:20:40.952Z,97.6
2024-03-12T07:22:21.563Z,97.7
2024-03-12T07:24:02.080Z,97.4
2024-03-12T07:25:42.520Z,97.7
2024-03-12T07:27:22.995Z,97.6
2024-03-12T07:29:03.446Z,97.7
2024-03-12T07:30:43.892Z,97.5
2024-03-12T07:32:24.397Z,97.7
2024-03-12T07:34:04.989Z,97.7
2024-03-12T07:35:45.600Z,97.8
2024-03-12T07:37:26.026Z,97.8
2024-03-12T07:39:06.474Z,98
2024-03-12T07:40:46.930Z,97.9
2024-03-12T07:42:27.412Z,97.7
2024-03-12T07:44:08.041Z,97.7
2024-03-12T07:45:48.861Z,97.7
2024-03-12T07:47:29.650Z,97.8
2024-03-12T07:49:13.305Z,97.7
2024-03-12T07:50:53.989Z,97.8
2024-03-12T07:52:34.791Z,97.7
2024-03-12T07:54:15.349Z,97.9
2024-03-12T07:55:55.885Z,97.5
2024-03-12T07:57:36.682Z,97.7
2024-03-12T07:59:17.388Z,97.7
2024-03-12T08:00:57.902Z,97.4
2024-03-12T08:02:38.486Z,97.9
2024-03-12T08:04:19.033Z,97.7
2024-03-12T08:05:59.602Z,97.7
2024-03-12T08:07:40.302Z,97.7
2024-03-12T08:09:20.946Z,97.7
2024-03-12T08:11:01.499Z,97.7
2024-03-12T08:12:42.636Z,97.5
2024-03-12T08:14:23.225Z,97.8
2024-03-12T08:16:03.759Z,97.8
2024-03-12T08:17:49.116Z,97.8
2024-03-12T08:19:30.914Z,97.7
2024-03-12T08:21:11.593Z,97.7
2024-03-12T08:22:52.054Z,97.8
2024-03-12T08:24:32.578Z,97.8
2024-03-12T08:26:13.054Z,97.9
2024-03-12T08:27:53.586Z,97.8
2024-03-12T08:29:34.246Z,97.9
2024-03-12T08:31:33.365Z,97.8
2024-03-12T08:33:27.134Z,97.9
2024-03-12T08:35:07.752Z,97.9
2024-03-12T08:36:48.434Z,97.8
2024-03-12T08:38:29.041Z,97.9
2024-03-12T08:40:10.105Z,97.5
2024-03-12T08:41:50.799Z,98
2024-03-12T08:43:31.370Z,97.8
2024-03-12T08:45:11.992Z,97.6
2024-03-12T08:46:52.477Z,97.8
2024-03-12T08:48:33.029Z,97.6
2024-03-12T08:50:13.691Z,97.7
2024-03-12T08:51:54.550Z,97.7
2024-03-12T08:53:35.187Z,97.5
2024-03-12T08:55:16.125Z,97.9
2024-03-12T08:56:56.737Z,97.7
2024-03-12T08:58:37.294Z,97.9
2024-03-12T09:00:18.131Z,97.8
2024-03-12T09:03:23.673Z,97.8
2024-03-12T09:05:04.114Z,97.7
2024-03-12T09:06:44.700Z,97.8
2024-03-12T09:08:25.516Z,97.8
2024-03-12T09:10:06.112Z,97.8
2024-03-12T09:11:46.662Z,97.7
2024-03-12T09:13:27.105Z,97.9
2024-03-12T09:15:09.408Z,97.6
2024-03-12T09:16:50.493Z,97.9
2024-03-12T09:18:30.989Z,97.8
2024-03-12T09:20:11.885Z,98
2024-03-12T09:21:52.642Z,98
2024-03-12T09:23:37.258Z,98
2024-03-12T09:25:32.097Z,97.9
2024-03-12T09:27:12.581Z,97.8
2024-03-12T09:28:53.016Z,97.9
2024-03-12T09:30:33.608Z,97.7
2024-03-12T09:32:14.047Z,97.6
2024-03-12T09:33:55.171Z,97.9
2024-03-12T09:35:37.025Z,97.7
2024-03-12T09:37:17.628Z,97.8
2024-03-12T09:38:58.246Z,97.6
2024-03-12T09:40:38.844Z,98.1
2024-03-12T09:42:19.314Z,98.1
2024-03-12T09:43:59.789Z,97.9
2024-03-12T09:45:43.689Z,97.6
2024-03-12T09:47:24.204Z,97.9
2024-03-12T09:49:04.766Z,97.6
2024-03-12T09:50:45.284Z,97.7
2024-03-12T09:52:25.741Z,97.7
2024-03-12T09:54:06.418Z,97.8
2024-03-12T09:55:46.956Z,97.9
2024-03-12T09:57:27.446Z,97.9
2024-03-12T09:59:08.090Z,97.6
2024-03-12T10:00:49.019Z,97.9
2024-03-12T10:02:29.685Z,97.9
2024-03-12T10:04:10.455Z,98
2024-03-12T10:05:51.016Z,98
2024-03-12T10:07:31.493Z,97.9
2024-03-12T10:09:11.984Z,98
2024-03-12T10:10:52.598Z,98.1
2024-03-12T10:12:33.070Z,98.2
2024-03-12T10:14:13.543Z,98.1
2024-03-12T10:15:54.352Z,98.1
2024-03-12T10:17:35.014Z,98.2
2024-03-12T10:19:15.756Z,98.1
2024-03-12T10:20:57.005Z,98
2024-03-12T10:22:37.645Z,98.1
2024-03-12T10:24:18.205Z,98
2024-03-12T10:25:58.699Z,98.3
2024-03-12T10:27:39.387Z,98
2024-03-12T10:29:21.806Z,98.3
2024-03-12T10:31:02.302Z,98
2024-03-12T10:32:42.730Z,98.1
2024-03-12T10:34:23.294Z,98.1
2024-03-12T10:36:03.742Z,97.9
2024-03-12T10:37:44.249Z,97.9
2024-03-12T10:39:24.816Z,98.1
2024-03-12T10:41:05.531Z,98.2
2024-03-12T10:42:46.171Z,98.2
2024-03-12T10:44:26.625Z,98.1
2024-03-12T10:46:07.210Z,98
2024-03-12T10:47:47.920Z,98
2024-03-12T10:49:29.115Z,98.1
2024-03-12T10:51:09.734Z,98.1
2024-03-12T10:55:04.872Z,98.2
2024-03-12T10:56:50.803Z,98.4
2024-03-12T10:58:31.243Z,98
2024-03-12T11:00:12.478Z,98
2024-03-12T11:01:53.038Z,98
2024-03-12T11:03:33.652Z,98.2
2024-03-12T11:05:14.193Z,97.9
2024-03-12T11:06:54.662Z,98.1
2024-03-12T11:08:35.221Z,98.1
2024-03-12T11:10:15.910Z,98.3
2024-03-12T11:11:57.197Z,98.3
2024-03-12T11:13:37.926Z,98.3
2024-03-12T11:15:18.365Z,98.3
2024-03-12T11:16:58.824Z,98
2024-03-12T11:18:39.348Z,98
2024-03-12T11:20:20.510Z,98.1
2024-03-12T11:22:05.101Z,98.2
2024-03-12T11:23:45.567Z,98.5
2024-03-12T11:25:26.416Z,98.2
2024-03-12T11:27:06.979Z,98.2
2024-03-12T11:28:47.451Z,98.3
2024-03-12T11:30:27.992Z,98.1
2024-03-12T11:32:12.333Z,98.1
2024-03-12T11:33:53.563Z,98.2
2024-03-12T11:35:34.585Z,98.4
2024-03-12T11:37:15.257Z,98.1
2024-03-12T11:38:55.977Z,98.3
2024-03-12T11:40:36.653Z,98.2
2024-03-12T11:42:18.001Z,98.5
2024-03-12T11:43:58.503Z,98.3
2024-03-12T11:45:38.985Z,98.2
2024-03-12T11:47:19.512Z,98.3
2024-03-12T11:48:59.983Z,98.1
2024-03-12T11:50:40.647Z,98.3
2024-03-12T11:52:21.200Z,98.1
2024-03-12T11:54:01.693Z,98
2024-03-12T11:55:42.313Z,98.4
2024-03-12T11:57:22.883Z,98.1
2024-03-12T11:59:12.122Z,98.1
2024-03-12T12:00:59.873Z,98.4
2024-03-12T12:02:40.418Z,98.1
2024-03-12T12:04:21.083Z,98.1
2024-03-12T12:06:01.670Z,98.3
2024-03-12T12:07:42.169Z,98.3
2024-03-12T12:09:22.638Z,98.1
2024-03-12T12:11:03.806Z,98.2
2024-03-12T12:12:44.389Z,98.3
2024-03-12T12:14:24.910Z,98.1
2024-03-12T12:16:05.887Z,98.1
2024-03-12T12:17:46.616Z,97.9
2024-03-12T12:19:38.747Z,98.1
2024-03-12T12:21:23.388Z,98.4
2024-03-12T12:23:03.900Z,98.2
2024-03-12T12:24:44.415Z,98.1
2024-03-12T12:26:25.098Z,98.3
2024-03-12T12:28:05.717Z,98.3
2024-03-12T12:29:46.243Z,98.2
2024-03-12T12:31:28.521Z,98.3
2024-03-12T12:33:09.071Z,98.4
2024-03-12T12:34:49.644Z,98.4
2024-03-12T12:36:30.091Z,98.3
2024-03-12T12:38:10.818Z,98.2
2024-03-12T12:39:55.730Z,98.3
2024-03-12T12:41:37.005Z,98.4
2024-03-12T12:43:36.305Z,98.4
2024-03-12T12:45:17.284Z,98.3
2024-03-12T12:46:57.782Z,98.4
2024-03-12T12:48:40.637Z,98.3
2024-03-12T12:50:23.135Z,98.3
2024-03-12T12:52:03.696Z,98.5
2024-03-12T12:53:44.466Z,98.3
2024-03-12T12:55:25.138Z,98.3
2024-03-12T12:57:05.802Z,98.2
2024-03-12T12:58:46.373Z,97.9
2024-03-12T13:00:26.802Z,97.9
2024-03-12T13:02:07.686Z,98.1
2024-03-12T13:03:48.649Z,98.2
2024-03-12T13:05:29.178Z,98.6
2024-03-12T13:07:09.694Z,98.1
2024-03-12T13:08:50.310Z,98.3
2024-03-12T13:10:30.852Z,98.3
2024-03-12T13:12:11.617Z,98.2
2024-03-12T13:13:52.225Z,98.2
2024-03-12T13:15:32.821Z,97.9
2024-03-12T13:17:13.399Z,98
2024-03-12T13:18:53.964Z,98.2
2024-03-12T13:20:34.777Z,98.2
2024-03-12T13:22:23.090Z,98
2024-03-12T13:24:10.952Z,98.3
2024-03-12T13:25:51.482Z,98.5
2024-03-12T13:27:32.167Z,98.1
2024-03-12T13:29:12.825Z,98
2024-03-12T13:30:53.412Z,98.3
2024-03-12T13:32:34.166Z,98.3
2024-03-12T13:34:15.375Z,98.3
2024-03-12T13:35:58.233Z,98.2
2024-03-12T13:37:38.897Z,98.4
2024-03-12T13:39:19.421Z,98.4
2024-03-12T13:41:00.533Z,98.1
2024-03-12T13:42:41.150Z,98.3
2024-03-12T13:44:21.774Z,98.4
2024-03-12T13:46:02.322Z,98.1
2024-03-12T13:47:43.054Z,97.8
2024-03-12T13:49:23.852Z,98.2
2024-03-12T13:51:04.532Z,98.1
2024-03-12T13:52:44.984Z,98.3
2024-03-12T13:54:25.446Z,98
2024-03-12T13:56:05.905Z,98.5
2024-03-12T13:57:46.481Z,98.6
2024-03-12T13:59:27.455Z,98.3
2024-03-12T14:01:08.057Z,98.5
2024-03-12T14:02:48.692Z,98.3
2024-03-12T14:04:33.670Z,98
2024-03-12T14:06:14.261Z,98.2
2024-03-12T14:07:54.768Z,98.2
2024-03-12T14:09:35.285Z,98.4
2024-03-12T14:11:16.007Z,98.1
2024-03-12T14:12:56.761Z,98.2
2024-03-12T14:14:37.475Z,98.3
2024-03-12T14:16:22.160Z,98.3
2024-03-12T14:18:04.306Z,98.2
2024-03-12T14:19:44.871Z,98.4
2024-03-12T14:21:25.332Z,98
2024-03-12T14:23:05.795Z,98.3
2024-03-12T14:24:46.332Z,98.5
2024-03-12T14:26:26.798Z,98.2
2024-03-12T14:28:07.341Z,98.3
2024-03-12T14:29:47.916Z,98.4
2024-03-12T14:31:46.163Z,98
2024-03-12T14:33:30.911Z,98.6
2024-03-12T14:35:11.518Z,98.2
2024-03-12T14:36:52.103Z,98.3
2024-03-12T14:38:32.715Z,98.4
2024-03-12T14:40:13.382Z,98.3
2024-03-12T14:41:53.953Z,98.5
2024-03-12T14:43:34.514Z,98.3
2024-03-12T14:45:15.304Z,98.3
2024-03-12T14:46:55.831Z,98.4
2024-03-12T14:48:36.659Z,98.4
2024-03-12T14:50:17.147Z,98.3
2024-03-12T14:51:57.685Z,98.1
2024-03-12T14:53:38.137Z,98.5
2024-03-12T14:55:18.700Z,98.3
2024-03-12T14:56:59.268Z,98.3
2024-03-12T14:58:39.737Z,98.1
2024-03-12T15:00:20.416Z,98.4
2024-03-12T15:03:27.154Z,98.6
2024-03-12T15:05:07.585Z,98.3
2024-03-12T15:06:48.154Z,98.5
2024-03-12T15:08:28.594Z,98.2
2024-03-12T15:10:09.137Z,98.3
2024-03-12T15:11:49.698Z,98.1
2024-03-12T15:13:30.251Z,98.3
2024-03-12T15:15:10.788Z,98.2
2024-03-12T15:16:52.010Z,98.2
2024-03-12T15:18:34.914Z,98.6
2024-03-12T15:20:16.605Z,98.4
2024-03-12T15:21:57.229Z,98.4
2024-03-12T15:23:37.823Z,98.3
2024-03-12T15:25:18.372Z,98.4
2024-03-12T15:26:58.923Z,98.4
2024-03-12T15:28:39.407Z,98.5
2024-03-12T15:30:19.852Z,98.6
2024-03-12T15:32:00.287Z,98.5
2024-03-12T15:33:40.790Z,98.4
2024-03-12T15:35:21.369Z,98.2
2024-03-12T15:37:01.895Z,98.2
2024-03-12T15:38:42.439Z,98.3
2024-03-12T15:40:23.172Z,98.4
2024-03-12T15:42:03.838Z,98.3
2024-03-12T15:43:44.307Z,98.5
2024-03-12T15:45:24.765Z,98.2
2024-03-12T15:47:05.221Z,98.5
2024-03-12T15:48:45.760Z,98.5
2024-03-12T15:50:26.226Z,98.3
2024-03-12T15:52:06.875Z,98.4
2024-03-12T15:53:47.544Z,98.5
2024-03-12T15:55:28.085Z,98.6
2024-03-12T15:57:08.625Z,98.4
2024-03-12T15:58:50.235Z,98.4
2024-03-12T16:00:30.721Z,98.3
2024-03-12T16:02:11.476Z,98.5
2024-03-12T16:03:52.117Z,98.5
2024-03-12T16:05:32.587Z,98.5
2024-03-12T16:07:13.231Z,98.1
2024-03-12T16:08:54.210Z,98.6
2024-03-12T16:10:34.657Z,98.3
2024-03-12T16:12:15.110Z,98.6
2024-03-12T16:13:55.571Z,98.6
2024-03-12T16:15:36.151Z,98.5
2024-03-12T16:17:16.695Z,98.7
2024-03-12T16:18:57.187Z,98.7
2024-03-12T16:20:37.695Z,98.7
2024-03-12T16:22:18.275Z,98.4
2024-03-12T16:23:58.917Z,98.6
2024-03-12T16:25:39.414Z,98.4
2024-03-12T16:27:19.828Z,98.9
2024-03-12T16:29:00.306Z,98.7
2024-03-12T16:30:40.858Z,99.1
2024-03-12T16:32:21.498Z,98.8
2024-03-12T16:34:02.029Z,98.7
2024-03-12T16:35:42.615Z,98.6
2024-03-12T16:37:23.186Z,98.8
2024-03-12T16:39:03.630Z,98.6
2024-03-12T16:40:44.082Z,98.4
2024-03-12T16:42:24.543Z,98.5
2024-03-12T16:44:05.106Z,98.5
2024-03-12T16:45:45.759Z,98.7
2024-03-12T16:47:26.211Z,98.6
2024-03-12T16:49:06.866Z,98.6
2024-03-12T16:50:47.431Z,98.6
2024-03-12T16:52:27.901Z,98.5
2024-03-12T16:54:26.232Z,99.1
2024-03-12T16:56:06.770Z,98.3
2024-03-12T16:57:47.241Z,98.7
2024-03-12T16:59:27.901Z,98.6
2024-03-12T17:01:08.661Z,98.7
2024-03-12T17:02:49.306Z,98.6
2024-03-12T17:04:29.797Z,98.4
2024-03-12T17:06:10.332Z,98.5
2024-03-12T17:07:50.767Z,98.6
2024-03-12T17:09:31.234Z,98.8
2024-03-12T17:11:12.473Z,98.7
2024-03-12T17:12:53.194Z,98.6
2024-03-12T17:14:37.490Z,98.5
2024-03-12T17:16:18.087Z,98.6
2024-03-12T17:17:58.897Z,98.7
2024-03-12T17:19:39.755Z,98.7
2024-03-12T17:21:20.269Z,98.8
2024-03-12T17:23:00.728Z,98.8
2024-03-12T17:24:41.878Z,98.6
2024-03-12T17:26:22.438Z,98.6
2024-03-12T17:28:02.958Z,98.7
2024-03-12T17:29:43.449Z,98.6
2024-03-12T17:31:23.999Z,98.5
2024-03-12T17:33:04.661Z,98.5
2024-03-12T17:34:45.218Z,98.6
2024-03-12T17:36:25.874Z,98.6
2024-03-12T17:38:06.343Z,98.8
2024-03-12T17:39:46.869Z,98.6
2024-03-12T17:41:27.598Z,98.7
2024-03-12T17:43:08.414Z,98.6
2024-03-12T17:44:48.992Z,98.6
2024-03-12T17:46:29.525Z,98.7
2024-03-12T17:48:10.233Z,98.7
2024-03-12T17:49:50.960Z,98.8
2024-03-12T17:51:31.449Z,98.5
2024-03-12T17:53:11.872Z,98.6
2024-03-12T17:54:52.425Z,98.6
2024-03-12T17:56:32.916Z,98.6
2024-03-12T17:58:13.448Z,98.6
2024-03-12T17:59:54.042Z,98.3
2024-03-12T18:01:34.805Z,98.5
2024-03-12T18:03:15.529Z,98.8
2024-03-12T18:04:56.011Z,98.6
2024-03-12T18:06:36.619Z,98.9
2024-03-12T18:08:17.104Z,98.5
2024-03-12T18:09:57.963Z,98.7
2024-03-12T18:11:38.425Z,98.5
2024-03-12T18:13:19.030Z,99
2024-03-12T18:14:59.680Z,98.8
2024-03-12T18:16:40.686Z,99
2024-03-12T18:18:21.793Z,98.6
2024-03-12T18:20:02.890Z,98.6
2024-03-12T18:21:43.427Z,98.6
2024-03-12T18:23:23.862Z,98.6
2024-03-12T18:25:04.435Z,98.6
2024-03-12T18:26:45.149Z,98.7
2024-03-12T18:28:25.884Z,98.7
2024-03-12T18:30:06.534Z,98.5
2024-03-12T18:31:46.983Z,98.8
2024-03-12T18:33:27.486Z,98.4
2024-03-12T18:35:07.997Z,98.4
2024-03-12T18:36:48.508Z,98.6
2024-03-12T18:38:29.109Z,98.5
2024-03-12T18:40:09.645Z,98.8
2024-03-12T18:43:49.447Z,98.3
2024-03-12T18:45:29.956Z,98.6
2024-03-12T18:47:10.542Z,98.5
2024-03-12T18:48:51.156Z,98.7
2024-03-12T18:50:31.756Z,98.6
2024-03-12T18:52:12.263Z,98.8
2024-03-12T18:53:52.766Z,98.6
2024-03-12T18:55:33.199Z,98.6
2024-03-12T18:57:13.658Z,98.6
2024-03-12T18:58:54.236Z,98.7
2024-03-12T19:00:34.774Z,98.8
2024-03-12T19:02:15.548Z,98.5
2024-03-12T19:03:56.286Z,98.5
2024-03-12T19:05:36.881Z,98.6
2024-03-12T19:07:17.401Z,98.4
2024-03-12T19:08:58.095Z,98.7
2024-03-12T19:10:38.876Z,98.7
2024-03-12T19:12:19.422Z,98.6
2024-03-12T19:13:59.964Z,98.8
2024-03-12T19:15:40.503Z,98.5
2024-03-12T19:17:21.116Z,98.7
2024-03-12T19:19:01.604Z,98.4
2024-03-12T19:20:42.094Z,98.4
2024-03-12T19:22:22.725Z,98.7
2024-03-12T19:24:05.358Z,98.6
2024-03-12T19:25:45.823Z,98.7
2024-03-12T19:27:32.201Z,98.8
2024-03-12T19:29:12.927Z,98.5
2024-03-12T19:30:53.513Z,98.7
2024-03-12T19:32:34.064Z,98.9
2024-03-12T19:34:14.726Z,98.8
2024-03-12T19:35:55.323Z,98.8
2024-03-12T19:37:35.752Z,98.9
2024-03-12T19:39:16.416Z,98.5
2024-03-12T19:40:56.891Z,98.8
2024-03-12T19:42:37.611Z,99
2024-03-12T19:44:18.092Z,98.6
2024-03-12T19:45:58.627Z,98.3
2024-03-12T19:47:39.642Z,98.6
2024-03-12T19:49:20.385Z,98.4
2024-03-12T19:51:00.948Z,98.4
2024-03-12T19:52:41.404Z,98.8
2024-03-12T19:54:21.864Z,98.6
2024-03-12T19:56:02.315Z,98.4
2024-03-12T19:57:42.935Z,98.5
2024-03-12T19:59:23.563Z,98.5
2024-03-12T20:01:04.362Z,98.6
2024-03-12T20:02:45.158Z,98.7
2024-03-12T20:04:25.701Z,98.6
2024-03-12T20:06:06.270Z,98.9
2024-03-12T20:07:46.726Z,98.7
2024-03-12T20:09:27.191Z,98.7
2024-03-12T20:11:07.783Z,98.7
2024-03-12T20:12:48.733Z,98.5
2024-03-12T20:14:31.740Z,98.7
2024-03-12T20:16:12.289Z,98.8
2024-03-12T20:17:52.992Z,98.8
2024-03-12T20:19:33.612Z,98.7
2024-03-12T20:21:14.074Z,98.6
2024-03-12T20:22:54.959Z,98.6
2024-03-12T20:24:35.368Z,98.8
2024-03-12T20:26:15.839Z,98.9
2024-03-12T20:27:57.303Z,98.6
2024-03-12T20:29:37.864Z,98.5
2024-03-12T20:31:18.702Z,98.3
2024-03-12T20:31:37.453Z,98.4
2024-03-12T20:33:18.038Z,98.6
2024-03-12T20:34:58.600Z,98.5
2024-03-12T20:36:39.212Z,98.6
2024-03-12T20:38:19.837Z,98.4
2024-03-12T20:40:00.613Z,98.7
2024-03-12T20:41:41.180Z,98.7
2024-03-12T20:43:21.720Z,98.6
2024-03-12T20:45:02.250Z,98.7
2024-03-12T20:46:42.867Z,98.7
2024-03-12T20:48:23.579Z,98.5
2024-03-12T20:50:04.228Z,98.7
2024-03-12T20:51:44.756Z,98.7
2024-03-12T20:53:25.242Z,98.8
2024-03-12T20:55:05.880Z,98.2
2024-03-12T20:56:46.465Z,98.7
2024-03-12T20:58:27.000Z,98.5
2024-03-12T21:00:07.464Z,98.6
2024-03-12T21:01:48.153Z,98.7
2024-03-12T21:03:29.025Z,98.5
2024-03-12T21:05:09.600Z,98.3
2024-03-12T21:06:50.213Z,98.5
2024-03-12T21:08:30.779Z,98.7
2024-03-12T21:10:11.445Z,98.6
2024-03-12T21:11:52.554Z,98.8
2024-03-12T21:13:33.257Z,98.9
2024-03-12T21:16:54.306Z,98.7
2024-03-12T21:18:34.773Z,98.8
2024-03-12T21:20:15.267Z,98.7
2024-03-12T21:21:55.839Z,98.7
2024-03-12T21:23:36.426Z,98.7
2024-03-12T21:25:17.183Z,98.7
2024-03-12T21:26:58.243Z,98.6
2024-03-12T21:28:38.828Z,98.4
2024-03-12T21:30:19.853Z,98.6
2024-03-12T21:32:03.092Z,98.8
2024-03-12T21:33:43.827Z,98.5
2024-03-12T21:35:24.519Z,98.8
2024-03-12T21:37:05.282Z,98.7
2024-03-12T21:38:45.952Z,98.6
2024-03-12T21:40:26.598Z,98.6
2024-03-12T21:42:07.462Z,98.8
2024-03-12T21:43:47.940Z,98.9
2024-03-12T21:45:28.380Z,99
2024-03-12T21:47:08.959Z,98.8
2024-03-12T21:48:49.691Z,98.5
2024-03-12T21:50:30.277Z,98.5
2024-03-12T21:52:10.788Z,98.7
2024-03-12T21:53:51.386Z,98.6
2024-03-12T21:55:32.078Z,98.8
2024-03-12T21:57:12.704Z,98.5
2024-03-12T21:58:53.202Z,98.6
2024-03-12T22:00:33.702Z,98.8
2024-03-12T22:03:18.180Z,98.3
2024-03-12T22:04:58.777Z,98.6
2024-03-12T22:06:39.276Z,98.7
2024-03-12T22:08:19.776Z,98.6
2024-03-12T22:10:00.296Z,98.7
2024-03-12T22:11:42.928Z,98.5
2024-03-12T22:13:36.685Z,98.7
2024-03-12T22:15:24.949Z,98.5
2024-03-12T22:17:05.397Z,98.6
2024-03-12T22:18:46.004Z,98.6
2024-03-12T22:20:26.542Z,98.6
2024-03-12T22:22:07.090Z,98.8
2024-03-12T22:23:47.529Z,98.6
2024-03-12T22:25:28.062Z,98.7
2024-03-12T22:27:08.541Z,98.4
2024-03-12T22:28:49.004Z,98.7
2024-03-12T22:30:29.460Z,98.6
2024-03-12T22:32:09.915Z,98.4
2024-03-12T22:33:50.394Z,98.8
2024-03-12T22:35:31.004Z,98.8
2024-03-12T22:37:11.500Z,98.8
2024-03-12T22:38:51.933Z,98.7
2024-03-12T22:40:32.463Z,98.7
2024-03-12T22:42:13.014Z,98.7
2024-03-12T22:43:53.821Z,98.7
2024-03-12T22:45:34.339Z,98.7
2024-03-12T22:47:14.826Z,98.7
2024-03-12T22:48:55.320Z,98.6
2024-03-12T22:50:35.771Z,98.7
2024-03-12T22:52:16.474Z,98.7
2024-03-12T22:53:57.060Z,98.3
2024-03-12T22:55:37.512Z,98.6
2024-03-12T22:57:17.979Z,98.4
2024-03-12T22:58:58.436Z,98.7
2024-03-12T23:00:38.886Z,98.3
2024-03-12T23:02:19.549Z,98.4
2024-03-12T23:04:00.288Z,98.8
2024-03-12T23:05:40.774Z,98.6
2024-03-12T23:07:21.407Z,98.6